Time;durP1;ratioP1;P1;durP2;ratioP2;P2;SDS_P1;SDS_P2;PMS_P1;PMS_P2;Temp;Humidity;BMP_temperature;BMP_pressure;BME280_temperature;BME280_humidity;BME280_pressure;Samples;Min_cycle;Max_cycle;Signal;HPM_P1;HPM_P2
2022/07/27 00:00:00;;;;;;;5.43;1.57;;;;;;;15.32;82.20;101082.28;685949;28;1444;-42
2022/07/27 00:00:21;;;;;;;4.65;1.52;;;;;;;15.31;81.62;101079.69;685480;28;1437;-43
2022/07/27 00:00:41;;;;;;;4.63;1.60;;;;;;;15.29;81.49;101076.22;686409;28;1144;-45
2022/07/27 00:01:03;;;;;;;5.47;1.50;;;;;;;15.28;81.51;101080.63;681102;28;4463;-44
2022/07/27 00:01:23;;;;;;;4.50;1.30;;;;;;;15.27;82.11;101078.00;688279;28;1325;-44
2022/07/27 00:01:44;;;;;;;5.40;1.33;;;;;;;15.27;82.01;101080.66;687987;28;1594;-44
2022/07/27 00:02:05;;;;;;;5.70;1.48;;;;;;;15.26;83.00;101073.66;688016;28;1254;-43
2022/07/27 00:02:25;;;;;;;6.38;1.52;;;;;;;15.24;83.68;101078.94;690781;28;1278;-45
2022/07/27 00:02:45;;;;;;;4.07;1.40;;;;;;;15.27;83.87;101073.63;688075;28;1212;-43
2022/07/27 00:03:06;;;;;;;5.90;1.50;;;;;;;15.27;83.60;101078.91;687404;28;1321;-44
2022/07/27 00:03:26;;;;;;;5.45;1.60;;;;;;;15.26;83.37;101073.66;689098;28;1275;-43
2022/07/27 00:03:47;;;;;;;4.68;1.67;;;;;;;15.25;83.22;101080.69;686448;28;1277;-45
2022/07/27 00:04:07;;;;;;;4.20;1.70;;;;;;;15.23;83.71;101077.22;684883;28;5489;-44
2022/07/27 00:04:28;;;;;;;4.95;1.63;;;;;;;15.23;83.76;101078.97;685949;28;1656;-43
2022/07/27 00:04:48;;;;;;;5.57;1.57;;;;;;;15.25;83.56;101075.41;687385;28;1749;-43
2022/07/27 00:05:08;;;;;;;3.83;1.47;;;;;;;15.23;84.05;101077.22;688550;28;1230;-44
2022/07/27 00:05:29;;;;;;;4.03;1.58;;;;;;;15.19;83.79;101078.16;689567;28;1396;-44
2022/07/27 00:05:50;;;;;;;4.50;1.67;;;;;;;15.20;83.35;101074.59;691643;28;1257;-43
2022/07/27 00:06:11;;;;;;;5.80;1.70;;;;;;;15.20;83.63;101074.59;691474;28;1395;-45
2022/07/27 00:06:32;;;;;;;6.13;1.58;;;;;;;15.21;84.72;101076.34;691041;28;1367;-45
2022/07/27 00:06:53;;;;;;;5.32;1.60;;;;;;;15.21;84.51;101073.72;688116;28;5378;-43
2022/07/27 00:07:13;;;;;;;4.67;1.50;;;;;;;15.23;84.44;101071.94;687464;28;1223;-45
2022/07/27 00:07:34;;;;;;;5.40;1.60;;;;;;;15.25;84.37;101077.19;688824;28;1297;-45
2022/07/27 00:07:54;;;;;;;4.27;1.53;;;;;;;15.24;84.05;101071.03;688632;28;1242;-43
2022/07/27 00:08:15;;;;;;;5.60;1.70;;;;;;;15.20;84.25;101071.13;688680;28;1130;-44
2022/07/27 00:08:36;;;;;;;5.27;1.50;;;;;;;15.17;83.58;101077.31;689754;28;2066;-43
2022/07/27 00:08:56;;;;;;;4.13;1.50;;;;;;;15.14;84.07;101072.09;689006;28;1574;-44
2022/07/27 00:09:18;;;;;;;5.73;1.50;;;;;;;15.10;83.36;101075.69;687856;28;1293;-45
2022/07/27 00:09:38;;;;;;;6.82;1.80;;;;;;;15.10;83.14;101080.94;688587;28;1411;-44
2022/07/27 00:09:59;;;;;;;5.90;1.77;;;;;;;15.11;84.03;101077.41;688007;28;4498;-43
2022/07/27 00:10:19;;;;;;;4.53;1.50;;;;;;;15.10;83.74;101079.16;688377;28;1277;-47
2022/07/27 00:10:40;;;;;;;5.83;1.60;;;;;;;15.12;83.84;101076.53;690423;28;1277;-44
2022/07/27 00:11:00;;;;;;;3.88;1.45;;;;;;;15.12;84.97;101076.53;689123;28;1581;-43
2022/07/27 00:11:21;;;;;;;5.53;1.60;;;;;;;15.15;84.23;101082.59;688525;28;1162;-43
2022/07/27 00:11:42;;;;;;;5.03;1.42;;;;;;;15.13;83.11;101080.88;689220;28;1417;-43
2022/07/27 00:12:02;;;;;;;6.45;1.60;;;;;;;15.11;82.92;101078.28;688526;28;1487;-43
2022/07/27 00:12:23;;;;;;;5.53;1.67;;;;;;;15.09;82.90;101079.19;685434;28;1922;-44
2022/07/27 00:12:43;;;;;;;5.00;1.60;;;;;;;15.08;82.89;101078.34;686185;28;1235;-43
2022/07/27 00:13:05;;;;;;;4.87;1.60;;;;;;;15.09;83.60;101080.09;687047;28;4770;-44
2022/07/27 00:13:25;;;;;;;5.38;1.50;;;;;;;15.10;83.17;101083.56;685775;28;1225;-44
2022/07/27 00:13:46;;;;;;;5.40;1.50;;;;;;;15.10;83.76;101075.69;686173;28;1286;-44
2022/07/27 00:14:07;;;;;;;5.30;1.60;;;;;;;15.11;84.78;101074.78;686094;28;1254;-46
2022/07/27 00:14:27;;;;;;;7.32;1.63;;;;;;;15.11;84.33;101077.41;691068;28;1290;-48
2022/07/27 00:14:47;;;;;;;3.93;1.60;;;;;;;15.10;85.24;101075.69;688310;28;1525;-44
2022/07/27 00:15:08;;;;;;;4.10;1.60;;;;;;;15.10;85.28;101078.31;687548;28;1200;-45
2022/07/27 00:15:29;;;;;;;4.47;1.50;;;;;;;15.08;84.90;101067.81;689142;28;1099;-44
2022/07/27 00:15:49;;;;;;;4.47;1.50;;;;;;;15.12;85.04;101079.16;688666;28;1249;-45
2022/07/27 00:16:10;;;;;;;6.17;1.60;;;;;;;15.12;83.46;101079.16;687720;28;4364;-46
2022/07/27 00:16:31;;;;;;;4.43;1.52;;;;;;;15.11;82.82;101080.06;688085;28;1184;-44
2022/07/27 00:16:51;;;;;;;5.67;1.40;;;;;;;15.11;82.89;101080.91;687871;28;1862;-46
2022/07/27 00:17:12;;;;;;;5.10;1.50;;;;;;;15.10;82.93;101087.06;688464;28;1154;-44
2022/07/27 00:17:32;;;;;;;4.70;1.60;;;;;;;15.08;83.46;101078.34;688900;28;1245;-44
2022/07/27 00:17:54;;;;;;;5.25;1.50;;;;;;;15.09;83.85;101073.94;687934;28;1354;-44
2022/07/27 00:18:14;;;;;;;5.35;1.40;;;;;;;15.09;85.09;101081.81;685937;28;1973;-44
2022/07/27 00:18:35;;;;;;;5.57;1.50;;;;;;;15.07;85.08;101075.75;685614;28;1310;-44
2022/07/27 00:18:55;;;;;;;4.75;1.60;;;;;;;15.03;84.81;101074.91;686058;28;4569;-46
2022/07/27 00:19:15;;;;;;;5.47;1.70;;;;;;;15.02;84.29;101082.84;686440;28;1666;-44
2022/07/27 00:19:36;;;;;;;6.77;1.70;;;;;;;15.01;83.56;101081.97;688668;28;1427;-46
2022/07/27 00:19:56;;;;;;;6.57;1.70;;;;;;;15.00;84.12;101082.00;683468;28;1453;-47
2022/07/27 00:20:17;;;;;;;6.80;1.50;;;;;;;14.97;83.83;101075.88;687286;28;1380;-44
2022/07/27 00:20:38;;;;;;;4.80;1.40;;;;;;;14.97;83.67;101075.03;685032;28;1326;-44
2022/07/27 00:20:59;;;;;;;4.78;1.58;;;;;;;14.97;83.80;101078.50;686679;28;1377;-44
2022/07/27 00:21:19;;;;;;;5.55;1.70;;;;;;;15.00;83.39;101082.00;685661;28;1294;-44
2022/07/27 00:21:39;;;;;;;4.63;1.60;;;;;;;15.03;83.24;101081.94;687207;28;1515;-45
2022/07/27 00:22:00;;;;;;;3.78;1.50;;;;;;;15.03;83.19;101077.53;685480;28;4307;-44
2022/07/27 00:22:21;;;;;;;5.60;1.43;;;;;;;15.04;83.13;101076.66;686372;28;1567;-45
2022/07/27 00:22:42;;;;;;;5.72;1.50;;;;;;;15.03;83.60;101085.44;687907;28;1313;-45
2022/07/27 00:23:02;;;;;;;4.23;1.43;;;;;;;15.03;85.08;101080.16;688923;28;1079;-44
2022/07/27 00:23:23;;;;;;;4.55;1.40;;;;;;;15.03;85.32;101079.31;688820;28;1143;-46
2022/07/27 00:23:43;;;;;;;5.97;1.60;;;;;;;15.03;86.64;101079.31;688679;28;1278;-44
2022/07/27 00:24:04;;;;;;;6.33;1.60;;;;;;;15.01;86.53;101086.34;688372;28;1235;-44
2022/07/27 00:24:24;;;;;;;6.47;1.52;;;;;;;14.96;84.63;101082.03;688593;28;1239;-45
2022/07/27 00:24:44;;;;;;;6.68;1.63;;;;;;;14.94;84.80;101080.34;686407;28;1462;-44
2022/07/27 00:25:05;;;;;;;5.10;1.60;;;;;;;14.92;84.63;101080.34;686764;28;4475;-44
2022/07/27 00:25:26;;;;;;;4.32;1.40;;;;;;;14.92;85.51;101077.72;689873;28;1201;-44
2022/07/27 00:25:46;;;;;;;4.93;1.35;;;;;;;14.93;86.56;101079.47;687786;28;1166;-44
2022/07/27 00:26:07;;;;;;;5.70;1.50;;;;;;;14.95;86.06;101085.59;687582;28;1296;-44
2022/07/27 00:26:27;;;;;;;4.55;1.52;;;;;;;14.96;85.83;101078.53;689360;28;1222;-45
2022/07/27 00:26:48;;;;;;;3.37;1.47;;;;;;;14.92;85.11;101088.25;689683;28;1253;-44
2022/07/27 00:27:08;;;;;;;4.60;1.60;;;;;;;14.91;84.68;101083.00;689351;28;1331;-44
2022/07/27 00:27:29;;;;;;;5.03;1.50;;;;;;;14.96;84.43;101089.94;688822;28;1431;-46
2022/07/27 00:27:49;;;;;;;4.60;1.40;;;;;;;14.98;83.50;101082.00;688756;28;1262;-45
2022/07/27 00:28:10;;;;;;;5.20;1.50;;;;;;;14.95;83.53;101077.69;682707;28;4315;-44
2022/07/27 00:28:30;;;;;;;5.27;1.60;;;;;;;14.93;84.27;101092.63;683624;28;1334;-44
2022/07/27 00:28:50;;;;;;;5.77;1.60;;;;;;;14.93;85.84;101083.88;683388;28;1250;-47
2022/07/27 00:29:11;;;;;;;6.00;1.67;;;;;;;14.91;84.94;101086.53;682172;28;1816;-43
2022/07/27 00:29:31;;;;;;;4.60;1.50;;;;;;;14.89;84.27;101083.03;683888;28;1095;-44
2022/07/27 00:29:52;;;;;;;4.00;1.43;;;;;;;14.87;84.17;101079.56;686337;28;1317;-43
2022/07/27 00:30:12;;;;;;;4.65;1.67;;;;;;;14.88;84.02;101083.06;689079;28;1278;-45
2022/07/27 00:30:32;;;;;;;5.77;1.80;;;;;;;14.86;83.76;101083.09;688962;28;1218;-44
2022/07/27 00:30:53;;;;;;;4.07;1.40;;;;;;;14.90;84.96;101083.91;688427;28;4865;-43
2022/07/27 00:31:13;;;;;;;3.30;1.50;;;;;;;14.90;85.61;101086.56;689165;28;1262;-43
2022/07/27 00:31:34;;;;;;;6.17;1.57;;;;;;;14.90;84.23;101087.41;690235;28;1352;-45
2022/07/27 00:31:54;;;;;;;6.07;1.52;;;;;;;14.90;85.04;101081.28;687751;28;1884;-46
2022/07/27 00:32:14;;;;;;;5.23;1.43;;;;;;;14.91;84.76;101086.53;686058;28;1075;-42
2022/07/27 00:32:35;;;;;;;4.88;1.52;;;;;;;14.91;84.37;101086.53;686227;28;1053;-45
2022/07/27 00:32:55;;;;;;;4.73;1.40;;;;;;;14.92;84.66;101082.97;686220;28;1538;-44
2022/07/27 00:33:16;;;;;;;5.97;1.70;;;;;;;14.93;84.72;101084.72;686540;28;1076;-45
2022/07/27 00:33:36;;;;;;;5.83;1.70;;;;;;;14.92;84.18;101082.97;686186;28;1353;-43
2022/07/27 00:33:57;;;;;;;6.25;1.58;;;;;;;14.93;84.35;101083.88;686743;28;4367;-44
2022/07/27 00:34:17;;;;;;;4.43;1.53;;;;;;;14.93;84.08;101083.88;690878;28;1229;-43
2022/07/27 00:34:37;;;;;;;5.00;1.50;;;;;;;14.93;84.03;101084.72;689477;28;1418;-43
2022/07/27 00:34:58;;;;;;;4.63;2.00;;;;;;;14.93;85.13;101087.34;685913;28;1262;-43
2022/07/27 00:35:18;;;;;;;6.30;2.27;;;;;;;14.93;84.70;101087.34;685452;28;1254;-43
2022/07/27 00:35:39;;;;;;;7.20;1.60;;;;;;;14.90;84.40;101083.91;682994;28;1450;-44
2022/07/27 00:36:00;;;;;;;6.87;1.73;;;;;;;14.89;85.18;101082.16;681971;28;1281;-43
2022/07/27 00:36:21;;;;;;;4.10;1.55;;;;;;;14.88;85.37;101078.66;681961;28;1527;-43
2022/07/27 00:36:41;;;;;;;4.47;1.52;;;;;;;14.89;84.36;101083.03;682319;28;1266;-45
2022/07/27 00:37:02;;;;;;;5.10;1.70;;;;;;;14.89;84.10;101080.41;682488;28;5253;-42
2022/07/27 00:37:22;;;;;;;4.40;1.60;;;;;;;14.89;83.89;101083.03;683310;28;1368;-43
2022/07/27 00:37:43;;;;;;;4.53;1.57;;;;;;;14.86;83.94;101083.09;688921;28;1285;-43
2022/07/27 00:38:03;;;;;;;4.70;1.60;;;;;;;14.86;84.40;101080.47;687967;28;888;-42
2022/07/27 00:38:24;;;;;;;4.13;1.50;;;;;;;14.87;85.42;101079.56;685611;28;1906;-45
2022/07/27 00:38:44;;;;;;;5.35;1.40;;;;;;;14.85;85.89;101078.72;687594;28;5059;-43
2022/07/27 00:39:05;;;;;;;4.35;1.45;;;;;;;14.82;85.51;101076.13;687603;28;1806;-42
2022/07/27 00:39:25;;;;;;;4.77;1.60;;;;;;;14.84;86.31;101084.00;688403;28;1242;-44
2022/07/27 00:39:46;;;;;;;4.78;1.50;;;;;;;14.85;85.98;101091.00;687965;28;1298;-43
2022/07/27 00:40:07;;;;;;;4.73;1.40;;;;;;;14.84;86.69;101082.22;687116;28;4510;-44
2022/07/27 00:40:27;;;;;;;5.53;1.40;;;;;;;14.80;85.90;101075.28;687001;28;1241;-44
2022/07/27 00:40:48;;;;;;;5.73;1.47;;;;;;;14.78;85.49;101084.97;688005;28;1301;-43
2022/07/27 00:41:08;;;;;;;5.53;1.80;;;;;;;14.77;85.30;101083.22;688546;28;1087;-42
2022/07/27 00:41:28;;;;;;;4.67;1.93;;;;;;;14.79;85.26;101084.94;689822;28;1333;-43
2022/07/27 00:41:49;;;;;;;4.15;1.80;;;;;;;14.79;84.95;101073.56;690429;28;1531;-43
2022/07/27 00:42:09;;;;;;;3.60;1.40;;;;;;;14.77;84.77;101080.59;690369;28;1621;-43
2022/07/27 00:42:30;;;;;;;3.55;1.40;;;;;;;14.76;84.97;101078.84;691186;28;1278;-43
2022/07/27 00:42:50;;;;;;;5.10;1.40;;;;;;;14.75;84.71;101080.63;688915;28;1262;-43
2022/07/27 00:43:11;;;;;;;5.15;1.40;;;;;;;14.73;85.03;101082.41;687759;28;5384;-45
2022/07/27 00:43:32;;;;;;;4.77;1.43;;;;;;;14.72;85.05;101080.66;689696;28;1237;-43
2022/07/27 00:43:53;;;;;;;5.55;1.58;;;;;;;14.72;85.68;101085.06;688472;28;1310;-43
2022/07/27 00:44:13;;;;;;;6.07;1.60;;;;;;;14.71;85.45;101080.69;687963;28;1412;-43
2022/07/27 00:44:34;;;;;;;5.63;1.65;;;;;;;14.71;85.18;101078.06;688775;28;1297;-43
2022/07/27 00:44:55;;;;;;;4.15;1.50;;;;;;;14.73;86.00;101082.41;690075;28;1689;-45
2022/07/27 00:45:15;;;;;;;5.70;1.52;;;;;;;14.74;85.99;101083.28;690581;28;1346;-43
2022/07/27 00:45:36;;;;;;;5.50;1.40;;;;;;;14.75;86.07;101082.38;689601;28;1420;-43
2022/07/27 00:45:56;;;;;;;5.30;1.60;;;;;;;14.74;85.89;101084.13;687976;28;5664;-46
2022/07/27 00:46:16;;;;;;;5.40;1.40;;;;;;;14.74;86.14;101093.81;689924;28;1211;-43
2022/07/27 00:46:37;;;;;;;5.10;1.40;;;;;;;14.72;86.37;101090.34;691861;28;1573;-43
2022/07/27 00:46:58;;;;;;;4.57;1.35;;;;;;;14.72;86.12;101087.72;690554;28;1296;-43
2022/07/27 00:47:19;;;;;;;4.97;1.50;;;;;;;14.73;86.30;101086.78;690873;28;1039;-42
2022/07/27 00:47:39;;;;;;;5.40;1.60;;;;;;;14.75;86.03;101087.66;690430;28;1003;-43
2022/07/27 00:48:00;;;;;;;4.67;1.50;;;;;;;14.74;85.64;101093.81;690225;28;1155;-43
2022/07/27 00:48:20;;;;;;;5.95;1.60;;;;;;;14.74;85.74;101088.53;688454;28;1264;-45
2022/07/27 00:48:40;;;;;;;5.10;1.43;;;;;;;14.73;86.02;101097.31;683916;28;1365;-44
2022/07/27 00:49:01;;;;;;;4.47;1.50;;;;;;;14.74;85.92;101084.13;681660;28;4389;-43
2022/07/27 00:49:23;;;;;;;4.22;1.60;;;;;;;14.74;86.06;101089.41;682543;28;1486;-43
2022/07/27 00:49:43;;;;;;;5.03;1.50;;;;;;;14.74;85.72;101085.91;682546;28;1267;-45
2022/07/27 00:50:04;;;;;;;5.53;1.50;;;;;;;14.75;85.70;101085.88;683448;28;1282;-44
2022/07/27 00:50:25;;;;;;;4.78;1.55;;;;;;;14.76;87.53;101087.63;686629;28;1148;-44
2022/07/27 00:50:46;;;;;;;5.03;1.50;;;;;;;14.76;86.38;101092.00;688927;28;1455;-43
2022/07/27 00:51:06;;;;;;;4.88;1.70;;;;;;;14.77;86.08;101091.13;688326;28;1523;-43
2022/07/27 00:51:27;;;;;;;5.65;1.70;;;;;;;14.77;86.45;101086.75;688585;28;1310;-44
2022/07/27 00:51:49;;;;;;;7.03;2.00;;;;;;;14.79;86.66;101089.34;687955;28;1083;-43
2022/07/27 00:52:09;;;;;;;5.82;1.70;;;;;;;14.78;88.49;101092.88;687522;28;4544;-44
2022/07/27 00:52:29;;;;;;;5.82;1.63;;;;;;;14.75;88.08;101085.03;688587;28;1184;-44
2022/07/27 00:52:50;;;;;;;4.60;1.40;;;;;;;14.74;87.60;101091.16;688177;28;1304;-45
2022/07/27 00:53:11;;;;;;;4.13;1.50;;;;;;;14.74;87.41;101088.53;687402;28;1134;-43
2022/07/27 00:53:32;;;;;;;4.22;1.58;;;;;;;14.75;87.55;101090.28;688299;28;1211;-44
2022/07/27 00:53:53;;;;;;;4.33;1.53;;;;;;;14.74;86.87;101088.53;688692;28;1071;-44
2022/07/27 00:54:13;;;;;;;4.25;1.42;;;;;;;14.70;85.96;101089.47;687144;28;1040;-43
2022/07/27 00:54:34;;;;;;;4.78;1.40;;;;;;;14.69;86.06;101086.00;688953;28;1177;-43
2022/07/27 00:54:54;;;;;;;5.05;1.45;;;;;;;14.73;86.74;101092.06;687897;28;4367;-43
2022/07/27 00:55:15;;;;;;;4.17;1.30;;;;;;;14.74;86.87;101083.28;690788;28;1473;-44
2022/07/27 00:55:38;;;;;;;5.70;1.55;;;;;;;14.77;86.75;101085.84;690461;28;1209;-43
2022/07/27 00:55:58;;;;;;;4.85;1.60;;;;;;;14.74;87.00;101084.13;689654;28;1512;-43
2022/07/27 00:56:19;;;;;;;6.33;1.60;;;;;;;14.74;87.02;101092.03;688833;28;1156;-43
2022/07/27 00:56:40;;;;;;;5.10;1.40;;;;;;;14.76;87.05;101085.00;688383;28;1127;-43
2022/07/27 00:57:00;;;;;;;6.22;1.40;;;;;;;14.74;87.44;101083.28;688955;28;1694;-43
2022/07/27 00:57:22;;;;;;;5.30;1.60;;;;;;;14.74;87.23;101086.75;689595;28;1261;-44
2022/07/27 00:57:42;;;;;;;5.20;1.55;;;;;;;14.74;87.07;101081.50;685096;28;1140;-44
2022/07/27 00:58:04;;;;;;;5.93;1.40;;;;;;;14.81;88.74;101080.53;685228;28;4326;-43
2022/07/27 00:58:26;;;;;;;4.20;1.50;;;;;;;14.83;87.69;101080.50;688855;28;1906;-43
2022/07/27 00:58:49;;;;;;;4.90;1.50;;;;;;;14.80;86.23;101086.69;685833;28;1342;-43
2022/07/27 00:59:11;;;;;;;5.43;1.52;;;;;;;14.79;86.02;101084.09;684130;28;1815;-45
2022/07/27 00:59:31;;;;;;;3.75;1.50;;;;;;;14.78;86.80;101079.72;686888;28;1024;-44
2022/07/27 00:59:51;;;;;;;3.73;1.60;;;;;;;14.74;86.50;101078.00;688304;28;989;-43
2022/07/27 01:00:12;;;;;;;5.35;1.45;;;;;;;14.74;86.64;101085.91;687571;28;1229;-44
2022/07/27 01:00:34;;;;;;;3.90;1.50;;;;;;;14.74;87.28;101081.50;688179;28;1269;-42
2022/07/27 01:00:54;;;;;;;4.80;1.50;;;;;;;14.75;87.98;101085.03;688734;28;4573;-44
2022/07/27 01:01:17;;;;;;;5.85;1.52;;;;;;;14.75;87.96;101082.38;689265;28;1278;-44
2022/07/27 01:01:38;;;;;;;5.70;1.50;;;;;;;14.74;88.26;101085.91;688856;28;1193;-43
2022/07/27 01:01:59;;;;;;;4.90;1.40;;;;;;;14.73;88.67;101077.16;689150;28;1242;-43
2022/07/27 01:02:19;;;;;;;3.77;1.30;;;;;;;14.73;87.76;101081.53;684926;28;1947;-44
2022/07/27 01:02:40;;;;;;;5.15;1.50;;;;;;;14.73;88.30;101084.16;686446;28;1234;-44
2022/07/27 01:03:01;;;;;;;3.90;1.40;;;;;;;14.72;88.53;101083.31;688837;28;1150;-43
2022/07/27 01:03:21;;;;;;;3.67;1.40;;;;;;;14.74;88.65;101083.28;688390;28;1179;-44
2022/07/27 01:03:42;;;;;;;4.20;1.38;;;;;;;14.80;86.73;101085.78;689193;28;1329;-45
2022/07/27 01:04:04;;;;;;;4.43;1.40;;;;;;;14.77;86.20;101088.47;686585;28;4454;-42
2022/07/27 01:04:25;;;;;;;3.50;1.23;;;;;;;14.85;85.44;101080.47;689013;28;1365;-44
2022/07/27 01:04:46;;;;;;;4.45;1.30;;;;;;;14.83;84.99;101075.25;688879;28;1491;-42
2022/07/27 01:05:06;;;;;;;5.43;1.40;;;;;;;14.78;85.37;101084.97;687942;28;1350;-43
2022/07/27 01:05:27;;;;;;;4.38;1.50;;;;;;;14.73;85.19;101078.91;686616;28;1077;-43
2022/07/27 01:05:48;;;;;;;4.53;1.60;;;;;;;14.74;86.21;101078.88;688449;28;1538;-44
2022/07/27 01:06:08;;;;;;;5.15;1.50;;;;;;;14.74;86.69;101085.91;684566;28;1557;-44
2022/07/27 01:06:30;;;;;;;4.97;1.60;;;;;;;14.73;87.21;101081.53;684278;28;1532;-43
2022/07/27 01:06:51;;;;;;;6.70;1.50;;;;;;;14.74;86.50;101088.53;685957;28;1488;-45
2022/07/27 01:07:12;;;;;;;4.50;1.50;;;;;;;14.74;86.23;101084.13;684521;28;4429;-43
2022/07/27 01:07:32;;;;;;;4.38;1.50;;;;;;;14.70;85.88;101087.69;685673;28;1238;-43
2022/07/27 01:07:52;;;;;;;5.03;1.30;;;;;;;14.72;85.51;101085.94;686856;28;1283;-43
2022/07/27 01:08:14;;;;;;;5.13;1.40;;;;;;;14.70;85.66;101081.59;687476;28;1076;-43
2022/07/27 01:08:34;;;;;;;4.25;1.48;;;;;;;14.68;85.92;101081.63;688449;28;1196;-43
2022/07/27 01:09:55;;;;;;;4.15;1.30;;;;;;;14.66;86.13;101079.88;689408;28;1174;-43
2022/07/27 01:09:55;;;;;;;6.20;1.65;;;;;;;14.69;85.64;101074.56;687194;28;1230;-43
2022/07/27 01:10:17;;;;;;;6.55;1.55;;;;;;;14.71;85.77;101078.94;690297;28;5211;-43
2022/07/27 01:10:39;;;;;;;5.60;1.40;;;;;;;14.69;85.69;101083.34;690986;28;1238;-43
2022/07/27 01:11:01;;;;;;;4.03;1.52;;;;;;;14.72;85.95;101082.44;691911;28;1171;-45
2022/07/27 01:11:22;;;;;;;4.32;1.42;;;;;;;14.74;85.99;101078.88;690787;28;1038;-43
2022/07/27 01:11:43;;;;;;;5.18;1.40;;;;;;;14.75;86.42;101079.75;692194;28;1259;-44
2022/07/27 01:12:07;;;;;;;5.05;1.50;;;;;;;14.75;86.68;101079.75;690201;28;1629;-43
2022/07/27 01:12:29;;;;;;;6.32;1.58;;;;;;;14.84;85.37;101076.09;691022;28;1205;-43
2022/07/27 01:12:49;;;;;;;4.95;1.50;;;;;;;14.80;85.69;101088.44;691515;28;1183;-42
2022/07/27 01:13:10;;;;;;;5.90;1.43;;;;;;;14.76;86.06;101085.00;690914;28;4325;-44
2022/07/27 01:13:31;;;;;;;4.28;1.33;;;;;;;14.73;86.51;101079.78;691386;28;1341;-43
2022/07/27 01:13:51;;;;;;;2.97;1.27;;;;;;;14.73;87.06;101076.25;692377;28;1174;-42
2022/07/27 01:14:14;;;;;;;5.70;1.60;;;;;;;14.73;86.56;101081.53;689630;28;1146;-42
2022/07/27 01:14:37;;;;;;;6.90;1.55;;;;;;;14.70;86.54;101077.19;689019;28;1194;-43
2022/07/27 01:14:59;;;;;;;4.28;1.48;;;;;;;14.69;86.85;101079.84;687889;28;1162;-42
2022/07/27 01:15:20;;;;;;;4.65;1.40;;;;;;;14.68;86.50;101078.13;688308;28;1028;-43
2022/07/27 01:15:43;;;;;;;4.40;1.38;;;;;;;14.68;86.54;101078.97;688655;28;1399;-44
2022/07/27 01:16:05;;;;;;;4.30;1.70;;;;;;;14.67;88.26;101071.97;687979;28;4474;-44
2022/07/27 01:16:26;;;;;;;6.55;1.60;;;;;;;14.68;88.20;101083.38;687635;28;1543;-45
2022/07/27 01:16:46;;;;;;;5.15;1.55;;;;;;;14.68;87.93;101072.84;684559;28;1221;-43
2022/07/27 01:17:07;;;;;;;5.80;1.53;;;;;;;14.64;87.33;101078.16;686054;28;1552;-43
2022/07/27 01:17:30;;;;;;;4.70;1.40;;;;;;;14.65;87.03;101084.28;688242;28;1059;-43
2022/07/27 01:17:50;;;;;;;5.40;1.40;;;;;;;14.68;87.08;101078.97;688373;28;1123;-44
2022/07/27 01:18:24;;;;;;;5.53;1.58;;;;;;;14.64;86.60;101078.16;688373;28;1028;-42
2022/07/27 01:18:44;;;;;;;6.10;1.50;;;;;;;14.64;86.65;101083.41;687766;28;1132;-43
2022/07/27 01:19:08;;;;;;;6.43;1.60;;;;;;;14.66;86.59;101082.53;688441;28;4731;-43
2022/07/27 01:19:28;;;;;;;4.97;1.42;;;;;;;14.67;87.29;101079.00;688907;28;1330;-43
2022/07/27 01:19:49;;;;;;;6.03;1.60;;;;;;;14.68;86.85;101080.75;688196;28;1210;-43
2022/07/27 01:20:09;;;;;;;5.70;1.67;;;;;;;14.66;87.59;101078.13;689846;28;1678;-45
2022/07/27 01:20:30;;;;;;;5.70;1.60;;;;;;;14.62;87.09;101073.75;693247;28;1221;-43
2022/07/27 01:20:50;;;;;;;4.30;1.40;;;;;;;14.60;86.84;101080.81;690120;28;1162;-44
2022/07/27 01:21:10;;;;;;;4.50;1.40;;;;;;;14.62;87.02;101077.31;686607;28;996;-43
2022/07/27 01:21:33;;;;;;;6.50;1.60;;;;;;;14.63;87.24;101073.81;687887;28;1198;-43
2022/07/27 01:21:53;;;;;;;5.07;1.50;;;;;;;14.63;88.55;101078.16;683669;28;4632;-43
2022/07/27 01:22:14;;;;;;;3.90;1.30;;;;;;;14.65;88.45;101084.28;683302;28;1597;-43
2022/07/27 01:22:34;;;;;;;4.47;1.45;;;;;;;14.60;87.62;101080.81;683289;28;1270;-44
2022/07/27 01:22:54;;;;;;;5.53;1.60;;;;;;;14.56;87.44;101079.97;685703;28;1120;-45
2022/07/27 01:23:15;;;;;;;3.70;1.40;;;;;;;14.53;87.29;101081.81;687816;28;1206;-43
2022/07/27 01:23:35;;;;;;;3.75;1.30;;;;;;;14.52;87.46;101080.91;685385;28;1271;-43
2022/07/27 01:23:55;;;;;;;4.57;1.40;;;;;;;14.53;87.26;101087.94;688010;28;1057;-43
2022/07/27 01:24:16;;;;;;;5.07;1.50;;;;;;;14.55;87.37;101091.44;688852;28;1306;-44
2022/07/27 01:24:37;;;;;;;5.47;1.50;;;;;;;14.54;87.32;101081.78;688499;28;1076;-43
2022/07/27 01:24:57;;;;;;;4.55;1.30;;;;;;;14.52;87.48;101078.28;688742;28;4395;-43
2022/07/27 01:25:17;;;;;;;4.63;1.40;;;;;;;14.53;87.35;101081.81;688110;28;1216;-44
2022/07/27 01:25:40;;;;;;;4.63;1.50;;;;;;;14.51;87.61;101087.09;689699;28;1064;-42
2022/07/27 01:26:01;;;;;;;5.32;1.67;;;;;;;14.48;88.44;101088.00;688462;28;1100;-43
2022/07/27 01:26:22;;;;;;;5.22;1.67;;;;;;;14.48;88.13;101092.38;687493;28;1185;-43
2022/07/27 01:26:42;;;;;;;5.00;1.50;;;;;;;14.51;88.82;101095.00;688580;28;1213;-43
2022/07/27 01:27:04;;;;;;;5.00;1.47;;;;;;;14.52;89.36;101091.44;688294;28;1049;-43
2022/07/27 01:27:24;;;;;;;3.80;1.30;;;;;;;14.53;88.05;101092.34;689605;28;1485;-43
2022/07/27 01:27:44;;;;;;;3.70;1.42;;;;;;;14.53;89.39;101087.94;688678;28;1369;-44
2022/07/27 01:28:05;;;;;;;4.60;1.50;;;;;;;14.50;88.54;101093.25;686983;28;4415;-43
2022/07/27 01:28:26;;;;;;;4.93;1.50;;;;;;;14.49;88.34;101088.88;689757;28;1314;-45
2022/07/27 01:28:47;;;;;;;4.80;1.55;;;;;;;14.48;88.18;101088.00;689344;28;1440;-42
2022/07/27 01:29:07;;;;;;;4.57;1.60;;;;;;;14.46;88.58;101087.13;687918;28;1447;-43
2022/07/27 01:29:29;;;;;;;6.45;1.70;;;;;;;14.44;88.83;101091.56;689413;28;1237;-43
2022/07/27 01:29:49;;;;;;;5.20;1.70;;;;;;;14.42;88.72;101089.84;689299;28;1040;-44
2022/07/27 01:30:26;;;;;;;4.88;1.40;;;;;;;14.40;88.74;101088.97;687732;28;1224;-43
2022/07/27 01:30:46;;;;;;;5.97;1.50;;;;;;;14.39;89.30;101090.75;688772;28;1146;-44
2022/07/27 01:31:06;;;;;;;5.47;1.43;;;;;;;14.40;89.19;101081.97;688593;28;4716;-43
2022/07/27 01:31:27;;;;;;;3.93;1.30;;;;;;;14.42;88.99;101087.22;685028;28;900;-43
2022/07/27 01:31:48;;;;;;;4.35;1.40;;;;;;;14.43;88.88;101091.59;685543;28;1554;-42
2022/07/27 01:32:08;;;;;;;4.00;1.40;;;;;;;14.43;88.97;101088.97;685034;28;1321;-43
2022/07/27 01:32:29;;;;;;;5.30;1.50;;;;;;;14.46;89.54;101088.91;686489;28;975;-44
2022/07/27 01:32:49;;;;;;;5.25;1.40;;;;;;;14.48;89.10;101088.00;689328;28;1122;-43
2022/07/27 01:33:10;;;;;;;5.37;1.30;;;;;;;14.48;89.46;101087.13;688343;28;1102;-43
2022/07/27 01:33:30;;;;;;;5.32;1.40;;;;;;;14.47;89.84;101093.28;689274;28;1231;-44
2022/07/27 01:33:51;;;;;;;3.90;1.20;;;;;;;14.45;89.13;101087.16;690352;28;926;-45
2022/07/27 01:34:11;;;;;;;3.22;1.23;;;;;;;14.42;88.74;101087.22;689142;28;4294;-43
2022/07/27 01:34:32;;;;;;;4.18;1.60;;;;;;;14.40;88.64;101088.97;688680;28;1572;-43
2022/07/27 01:34:53;;;;;;;4.27;1.50;;;;;;;14.43;88.63;101089.81;688373;28;1239;-43
2022/07/27 01:35:13;;;;;;;4.33;1.40;;;;;;;14.42;88.91;101087.22;688399;28;1095;-42
2022/07/27 01:35:35;;;;;;;3.50;1.37;;;;;;;14.42;88.87;101090.69;689355;28;1277;-44
2022/07/27 01:35:56;;;;;;;4.90;1.48;;;;;;;14.41;89.54;101085.47;690045;28;1269;-45
2022/07/27 01:36:16;;;;;;;4.72;1.40;;;;;;;14.41;90.54;101085.47;688723;28;1272;-42
2022/07/27 01:36:37;;;;;;;4.35;1.40;;;;;;;14.38;89.58;101081.13;688258;28;1254;-43
2022/07/27 01:36:58;;;;;;;4.97;1.30;;;;;;;14.42;89.82;101081.97;688182;28;4409;-42
2022/07/27 01:37:18;;;;;;;5.10;1.50;;;;;;;14.39;90.36;101080.22;689179;28;1394;-44
2022/07/27 01:37:38;;;;;;;5.85;1.50;;;;;;;14.38;90.54;101080.25;687560;28;1610;-44
2022/07/27 01:37:59;;;;;;;3.47;1.30;;;;;;;14.46;89.31;101083.66;688056;28;1293;-43
2022/07/27 01:38:20;;;;;;;4.63;1.40;;;;;;;14.44;88.52;101075.78;689039;28;1981;-42
2022/07/27 01:38:40;;;;;;;3.88;1.30;;;;;;;14.41;88.89;101081.09;686727;28;1377;-43
2022/07/27 01:39:01;;;;;;;4.83;1.50;;;;;;;14.42;89.19;101081.97;685654;28;4962;-43
2022/07/27 01:39:21;;;;;;;4.73;1.37;;;;;;;14.38;89.32;101080.25;686985;28;1162;-43
2022/07/27 01:39:41;;;;;;;3.97;1.57;;;;;;;14.38;89.13;101080.25;685218;28;1227;-44